Time;durP1;ratioP1;P1;durP2;ratioP2;P2;SDS_P1;SDS_P2;PMS_P1;PMS_P2;Temp;Humidity;BMP_temperature;BMP_pressure;BME280_temperature;BME280_humidity;BME280_pressure;Samples;Min_cycle;Max_cycle;Signal;HPM_P1;HPM_P2
2021/07/28 00:02:19;;;;;;;4.47;4.07;;;23.00;99.90;;;;;;5015251;28;20204;-62
2021/07/28 00:04:44;;;;;;;4.90;4.40;;;23.10;99.90;;;;;;5015339;28;20214;-64
2021/07/28 00:07:10;;;;;;;4.63;4.22;;;23.10;99.90;;;;;;5015365;28;20187;-62
2021/07/28 00:09:36;;;;;;;5.65;5.00;;;23.10;99.90;;;;;;5007280;28;20295;-64
2021/07/28 00:12:02;;;;;;;4.82;4.32;;;23.10;99.90;;;;;;4995305;28;20288;-63
2021/07/28 00:14:28;;;;;;;4.43;3.97;;;22.70;99.90;;;;;;4995355;28;20561;-62
2021/07/28 00:16:54;;;;;;;4.57;4.18;;;22.50;99.90;;;;;;4995806;28;20169;-63
2021/07/28 00:19:26;;;;;;;5.25;4.30;;;22.20;99.90;;;;;;4995797;28;20627;-63
2021/07/28 00:24:36;;;;;;;5.32;4.80;;;21.90;99.90;;;;;;4995680;28;20203;-61
2021/07/28 00:27:02;;;;;;;6.63;4.55;;;21.70;99.90;;;;;;4995284;28;20179;-62
2021/07/28 00:29:28;;;;;;;5.75;5.10;;;21.70;99.90;;;;;;4995514;28;20179;-62
2021/07/28 00:31:54;;;;;;;5.30;4.35;;;21.80;99.90;;;;;;4994985;28;20218;-63
2021/07/28 00:34:20;;;;;;;5.20;4.75;;;22.00;99.90;;;;;;4994912;28;20205;-63
2021/07/28 00:36:46;;;;;;;5.30;4.80;;;22.20;99.90;;;;;;4995251;28;20175;-62
2021/07/28 00:39:11;;;;;;;6.38;4.50;;;22.40;99.90;;;;;;4995080;28;20662;-62
2021/07/28 00:41:44;;;;;;;5.93;5.32;;;22.20;99.90;;;;;;4994990;28;20642;-63
2021/07/28 00:44:11;;;;;;;6.80;5.68;;;22.00;99.90;;;;;;4995129;28;20383;-62
2021/07/28 00:46:36;;;;;;;6.22;5.50;;;22.00;99.90;;;;;;4995104;28;20639;-60
2021/07/28 00:49:02;;;;;;;6.07;5.57;;;22.10;99.90;;;;;;4994702;28;20310;-64
2021/07/28 00:51:28;;;;;;;6.20;5.40;;;21.90;99.90;;;;;;4994674;28;20194;-62
2021/07/28 00:53:54;;;;;;;6.07;5.47;;;21.90;99.90;;;;;;4994205;28;20194;-62
2021/07/28 00:56:21;;;;;;;6.18;5.40;;;21.70;99.90;;;;;;4994762;28;20245;-63
2021/07/28 00:58:47;;;;;;;8.15;5.50;;;21.60;99.90;;;;;;4994573;28;20190;-63
2021/07/28 01:01:15;;;;;;;6.70;5.45;;;21.40;99.90;;;;;;4994665;28;20182;-62
2021/07/28 01:03:42;;;;;;;6.63;5.55;;;21.20;99.90;;;;;;4994712;28;20209;-63
2021/07/28 01:06:09;;;;;;;7.63;5.13;;;21.20;99.90;;;;;;4994720;28;20169;-63
2021/07/28 01:08:34;;;;;;;8.10;5.57;;;21.20;99.90;;;;;;4994742;28;20192;-60
2021/07/28 01:11:01;;;;;;;6.05;5.45;;;21.30;99.90;;;;;;4994733;28;20177;-63
2021/07/28 01:13:30;;;;;;;8.98;5.57;;;21.60;99.90;;;;;;4994514;28;20639;-63
2021/07/28 01:16:12;;;;;;;6.20;5.28;;;21.70;99.90;;;;;;4994145;28;20190;-63
2021/07/28 01:18:39;;;;;;;6.75;6.15;;;21.90;99.90;;;;;;4994758;28;20170;-62
2021/07/28 01:21:07;;;;;;;6.95;6.35;;;22.00;99.90;;;;;;4994455;28;20224;-64
2021/07/28 01:23:33;;;;;;;6.00;5.38;;;22.00;99.90;;;;;;4994479;28;20277;-62
2021/07/28 01:26:04;;;;;;;6.72;5.60;;;22.00;99.90;;;;;;4994515;28;20255;-62
2021/07/28 01:28:31;;;;;;;7.22;6.55;;;22.10;99.90;;;;;;4994552;28;20167;-64
2021/07/28 01:31:02;;;;;;;7.07;6.38;;;22.10;99.90;;;;;;4994086;28;20198;-63
2021/07/28 01:33:30;;;;;;;9.40;7.80;;;22.20;99.90;;;;;;4994430;28;20200;-62
2021/07/28 01:35:57;;;;;;;7.60;6.90;;;22.20;99.90;;;;;;4994174;28;20251;-63
2021/07/28 01:38:25;;;;;;;7.20;6.50;;;22.10;99.90;;;;;;4994845;28;20186;-64
2021/07/28 01:40:57;;;;;;;7.75;6.43;;;22.00;99.90;;;;;;4994298;28;20190;-63
2021/07/28 01:43:23;;;;;;;7.40;6.70;;;22.10;99.90;;;;;;4994465;28;20186;-63
2021/07/28 01:45:49;;;;;;;6.72;6.13;;;22.00;99.90;;;;;;4994374;28;20538;-62
2021/07/28 01:48:15;;;;;;;6.45;5.93;;;21.90;99.90;;;;;;4994491;28;20321;-62
2021/07/28 01:50:43;;;;;;;6.85;6.15;;;21.90;99.90;;;;;;4993878;28;20220;-63
2021/07/28 01:53:08;;;;;;;6.10;5.60;;;21.90;99.90;;;;;;4993950;28;20209;-62
2021/07/28 01:55:34;;;;;;;6.78;5.47;;;21.90;99.90;;;;;;4994806;28;20168;-62
2021/07/28 01:58:00;;;;;;;5.85;5.25;;;22.00;99.90;;;;;;4993993;28;20178;-63
2021/07/28 02:00:25;;;;;;;5.43;4.93;;;22.00;99.90;;;;;;4992907;28;20184;-62
2021/07/28 02:02:51;;;;;;;8.73;5.70;;;22.10;99.90;;;;;;4993657;28;20221;-61
2021/07/28 02:05:17;;;;;;;7.05;6.35;;;22.10;99.90;;;;;;4995752;28;20484;-64
2021/07/28 02:07:43;;;;;;;5.97;5.47;;;22.10;99.90;;;;;;4997994;28;20217;-62
2021/07/28 02:10:09;;;;;;;6.03;5.43;;;22.00;99.90;;;;;;4998068;28;20219;-64
2021/07/28 02:12:34;;;;;;;5.85;5.05;;;21.90;99.90;;;;;;4997798;28;20248;-62
2021/07/28 02:15:00;;;;;;;5.88;5.00;;;21.80;99.90;;;;;;4997817;28;20181;-63
2021/07/28 02:17:25;;;;;;;6.03;5.38;;;21.80;99.90;;;;;;4997892;28;20179;-64
2021/07/28 02:19:51;;;;;;;6.90;5.20;;;21.80;99.90;;;;;;4997709;28;20193;-64
2021/07/28 02:22:16;;;;;;;5.50;5.00;;;21.80;99.90;;;;;;4997443;28;20213;-63
2021/07/28 02:24:42;;;;;;;12.25;5.50;;;21.90;99.90;;;;;;4997412;28;20217;-62
2021/07/28 02:27:08;;;;;;;5.00;4.60;;;22.00;99.90;;;;;;4997964;28;20660;-62
2021/07/28 02:29:36;;;;;;;5.72;5.20;;;22.00;99.90;;;;;;4997595;28;20614;-64
2021/07/28 02:32:03;;;;;;;5.65;5.07;;;21.90;99.90;;;;;;4997509;28;20280;-63
2021/07/28 02:34:30;;;;;;;5.65;5.15;;;21.90;99.90;;;;;;4997593;28;20300;-62
2021/07/28 02:36:56;;;;;;;5.97;5.22;;;21.80;99.90;;;;;;4997266;28;20225;-62
2021/07/28 02:39:21;;;;;;;5.90;5.30;;;21.60;99.90;;;;;;4997416;28;20169;-62
2021/07/28 02:41:47;;;;;;;5.53;5.03;;;21.40;99.90;;;;;;4997144;28;20180;-62
2021/07/28 02:44:12;;;;;;;5.25;4.75;;;21.40;99.90;;;;;;4997491;28;20186;-62
2021/07/28 02:46:38;;;;;;;5.65;4.88;;;21.50;99.90;;;;;;4997532;28;20189;-64
2021/07/28 02:49:03;;;;;;;5.07;4.53;;;21.50;99.90;;;;;;4997165;28;20198;-62
2021/07/28 02:51:29;;;;;;;5.50;5.00;;;21.70;99.90;;;;;;4995545;28;20205;-61
2021/07/28 02:53:54;;;;;;;6.47;4.82;;;21.70;99.90;;;;;;4996889;28;20185;-62
2021/07/28 02:56:20;;;;;;;5.63;5.13;;;21.70;99.90;;;;;;4996901;28;20177;-63
2021/07/28 02:58:45;;;;;;;6.03;5.40;;;21.80;99.90;;;;;;4997055;28;20658;-62
2021/07/28 03:01:11;;;;;;;8.30;5.00;;;21.60;99.90;;;;;;4997373;28;20220;-63
2021/07/28 03:03:36;;;;;;;6.32;5.65;;;21.20;99.90;;;;;;4996993;28;20193;-62
2021/07/28 03:06:02;;;;;;;8.40;6.60;;;20.70;99.90;;;;;;4996932;28;20188;-62
2021/07/28 03:08:28;;;;;;;8.63;7.13;;;20.40;99.90;;;;;;4996693;28;20657;-61
2021/07/28 03:10:53;;;;;;;7.37;6.67;;;20.20;99.90;;;;;;4996431;28;20193;-63
2021/07/28 03:13:19;;;;;;;7.97;6.57;;;20.00;99.90;;;;;;4996587;28;20205;-64
2021/07/28 03:15:44;;;;;;;7.40;6.70;;;20.10;99.90;;;;;;4996796;28;20173;-63
2021/07/28 03:18:10;;;;;;;8.40;7.40;;;20.10;99.90;;;;;;4995795;28;20174;-64
2021/07/28 03:20:36;;;;;;;8.20;7.47;;;20.00;99.90;;;;;;4996609;28;20688;-62
2021/07/28 03:23:01;;;;;;;8.33;7.43;;;20.10;99.90;;;;;;4996590;28;20197;-64
2021/07/28 03:25:27;;;;;;;8.13;7.00;;;20.10;99.90;;;;;;4996827;28;20568;-62
2021/07/28 03:27:52;;;;;;;8.57;7.70;;;20.00;99.90;;;;;;4996193;28;20220;-63
2021/07/28 03:30:18;;;;;;;8.00;7.20;;;20.00;99.90;;;;;;4996706;28;20272;-62
2021/07/28 03:32:43;;;;;;;7.80;7.10;;;20.00;99.90;;;;;;4995052;28;20229;-63
2021/07/28 03:35:09;;;;;;;7.90;7.20;;;20.10;99.90;;;;;;4996292;28;20209;-64
2021/07/28 03:37:35;;;;;;;9.50;8.50;;;20.10;99.90;;;;;;4996393;28;20199;-61
2021/07/28 03:40:00;;;;;;;8.00;7.30;;;20.20;99.90;;;;;;4996189;28;20268;-63
2021/07/28 03:42:30;;;;;;;8.30;7.40;;;20.30;99.90;;;;;;4996042;28;20564;-62
2021/07/28 03:44:57;;;;;;;9.10;8.23;;;20.20;99.90;;;;;;4995947;28;20205;-63
2021/07/28 03:47:22;;;;;;;8.33;7.53;;;20.30;99.90;;;;;;4996321;28;20227;-62
2021/07/28 03:49:48;;;;;;;9.90;8.50;;;20.50;99.90;;;;;;4996313;28;20256;-62
2021/07/28 03:52:13;;;;;;;10.13;9.13;;;20.60;99.90;;;;;;4995556;28;20220;-64
2021/07/28 03:54:39;;;;;;;8.57;7.87;;;20.70;99.90;;;;;;4995870;28;20600;-62
2021/07/28 03:57:05;;;;;;;9.03;8.13;;;20.80;99.90;;;;;;4985211;28;20546;-64
2021/07/28 03:59:30;;;;;;;8.43;7.63;;;20.90;99.90;;;;;;4976548;28;20654;-62
2021/07/28 04:01:56;;;;;;;9.63;8.73;;;20.90;99.90;;;;;;4976625;28;20269;-63
2021/07/28 04:04:21;;;;;;;8.30;7.50;;;20.90;99.90;;;;;;4975635;28;20189;-62
2021/07/28 04:06:47;;;;;;;12.03;9.73;;;20.90;99.90;;;;;;4975067;28;20174;-63
2021/07/28 04:09:12;;;;;;;10.33;9.17;;;20.90;99.90;;;;;;4975881;28;20618;-64
2021/07/28 04:11:38;;;;;;;9.97;8.97;;;20.90;99.90;;;;;;4976074;28;20602;-64
2021/07/28 04:14:03;;;;;;;9.13;7.37;;;20.80;99.90;;;;;;4975958;28;20198;-63
2021/07/28 04:16:29;;;;;;;7.30;6.50;;;21.00;99.90;;;;;;4976507;28;20564;-62
2021/07/28 04:18:54;;;;;;;8.33;7.37;;;21.10;99.90;;;;;;4976129;28;20588;-62
2021/07/28 04:21:20;;;;;;;8.30;7.60;;;21.20;99.90;;;;;;4975920;28;20177;-63
2021/07/28 04:23:45;;;;;;;7.83;7.03;;;21.30;99.90;;;;;;4975938;28;20198;-63
2021/07/28 04:26:11;;;;;;;7.60;6.90;;;21.30;99.90;;;;;;4991007;28;20649;-63
2021/07/28 04:28:36;;;;;;;7.23;6.53;;;21.30;99.90;;;;;;5003454;28;20610;-61
2021/07/28 04:31:02;;;;;;;7.77;5.83;;;21.40;99.90;;;;;;5001719;28;20235;-63
2021/07/28 04:33:27;;;;;;;6.90;6.20;;;21.40;99.90;;;;;;4990551;28;20200;-63
2021/07/28 04:35:53;;;;;;;6.47;5.57;;;21.30;99.90;;;;;;5002523;28;20197;-62
2021/07/28 04:38:18;;;;;;;5.67;5.17;;;21.30;99.90;;;;;;4987607;28;20197;-64
2021/07/28 04:40:44;;;;;;;5.97;5.47;;;21.40;99.90;;;;;;4989935;28;20177;-63
2021/07/28 04:43:10;;;;;;;6.53;5.93;;;21.50;99.90;;;;;;4994298;28;20283;-63
2021/07/28 04:45:35;;;;;;;6.73;6.13;;;21.60;99.90;;;;;;4987571;28;20198;-64
2021/07/28 04:48:01;;;;;;;7.55;6.13;;;21.50;99.90;;;;;;4999454;28;20255;-62
2021/07/28 04:50:26;;;;;;;6.10;5.25;;;21.50;99.90;;;;;;5006658;28;20647;-64
2021/07/28 04:52:52;;;;;;;6.80;6.10;;;21.60;99.90;;;;;;4994778;28;20695;-64
2021/07/28 04:55:17;;;;;;;5.95;5.43;;;21.70;99.90;;;;;;4994875;28;20185;-64
2021/07/28 04:57:43;;;;;;;7.18;5.95;;;21.70;99.90;;;;;;4995072;28;20173;-63
2021/07/28 05:00:09;;;;;;;7.63;6.93;;;21.80;99.90;;;;;;4992814;28;20180;-63
2021/07/28 05:02:34;;;;;;;6.93;6.25;;;21.70;99.90;;;;;;4992044;28;20186;-62
2021/07/28 05:05:00;;;;;;;6.72;6.13;;;21.70;99.90;;;;;;5014542;28;20596;-64
2021/07/28 05:07:25;;;;;;;6.90;6.20;;;21.70;99.90;;;;;;5004289;28;20268;-64
2021/07/28 05:09:50;;;;;;;6.38;5.78;;;21.60;99.90;;;;;;4983548;28;20243;-63
2021/07/28 05:12:16;;;;;;;7.90;7.20;;;21.60;99.90;;;;;;4992856;28;20228;-64
2021/07/28 05:14:42;;;;;;;6.65;6.05;;;21.70;99.90;;;;;;4984076;28;20206;-62
2021/07/28 05:17:07;;;;;;;7.30;6.63;;;21.80;99.90;;;;;;4975508;28;20308;-63
2021/07/28 05:19:33;;;;;;;8.70;7.57;;;21.90;99.90;;;;;;4974794;28;20214;-63
2021/07/28 05:21:58;;;;;;;7.50;6.55;;;22.00;99.90;;;;;;4974236;28;20175;-63
2021/07/28 05:24:24;;;;;;;6.70;6.03;;;21.80;99.90;;;;;;4974259;28;20219;-61
2021/07/28 05:26:49;;;;;;;6.50;5.85;;;21.80;99.90;;;;;;4975545;28;20186;-63
2021/07/28 05:29:15;;;;;;;6.82;6.07;;;21.80;99.90;;;;;;4973657;28;20200;-63
2021/07/28 05:31:40;;;;;;;6.82;6.22;;;22.00;99.90;;;;;;4975170;28;20195;-62
2021/07/28 05:34:06;;;;;;;7.97;6.20;;;22.00;99.90;;;;;;4975598;28;20197;-63
2021/07/28 05:36:31;;;;;;;6.63;5.93;;;22.10;99.90;;;;;;4974573;28;20176;-62
2021/07/28 05:38:57;;;;;;;7.47;6.72;;;22.10;99.90;;;;;;4974700;28;20271;-64
2021/07/28 05:41:22;;;;;;;8.68;6.30;;;22.10;99.90;;;;;;4980679;28;20530;-63
2021/07/28 05:43:48;;;;;;;7.10;6.03;;;22.20;99.90;;;;;;4981247;28;20683;-61
2021/07/28 05:46:13;;;;;;;6.50;5.90;;;22.10;99.90;;;;;;4981651;28;20186;-64
2021/07/28 05:48:39;;;;;;;6.85;6.25;;;22.20;99.90;;;;;;4980884;28;20226;-61
2021/07/28 05:51:04;;;;;;;8.13;7.32;;;22.30;99.90;;;;;;4980473;28;20236;-63
2021/07/28 05:53:30;;;;;;;8.25;6.65;;;22.40;99.90;;;;;;4981209;28;20221;-64
2021/07/28 05:55:55;;;;;;;9.82;6.70;;;22.30;99.90;;;;;;4981068;28;20187;-63
2021/07/28 05:58:21;;;;;;;7.88;6.43;;;22.00;99.90;;;;;;4981452;28;20651;-62
2021/07/28 06:00:48;;;;;;;8.23;6.45;;;21.80;99.90;;;;;;4981007;28;20226;-62
2021/07/28 06:03:14;;;;;;;6.30;5.70;;;21.90;99.90;;;;;;4981241;28;20205;-61
2021/07/28 06:05:40;;;;;;;7.22;6.57;;;21.80;99.90;;;;;;4980990;28;20189;-62
2021/07/28 06:08:05;;;;;;;7.20;6.50;;;21.80;99.90;;;;;;4981719;28;20254;-62
2021/07/28 06:10:31;;;;;;;10.30;6.70;;;21.80;99.90;;;;;;4980929;28;20204;-64
2021/07/28 06:12:59;;;;;;;6.90;6.25;;;21.70;99.90;;;;;;4981132;28;20210;-64
2021/07/28 06:15:25;;;;;;;8.20;6.47;;;21.70;99.90;;;;;;4981643;28;20167;-64
2021/07/28 06:17:50;;;;;;;9.05;6.68;;;21.70;99.90;;;;;;4981334;28;20176;-63
2021/07/28 06:20:17;;;;;;;7.18;6.47;;;21.70;99.90;;;;;;4981048;28;20176;-62
2021/07/28 06:22:43;;;;;;;7.30;6.60;;;21.50;99.90;;;;;;4980643;28;20196;-63
2021/07/28 06:25:09;;;;;;;7.32;6.72;;;21.40;99.90;;;;;;4981425;28;20177;-62
2021/07/28 06:27:35;;;;;;;7.80;6.00;;;21.40;99.90;;;;;;4980736;28;20183;-63
2021/07/28 06:30:00;;;;;;;6.35;5.63;;;21.40;99.90;;;;;;4981124;28;20291;-64
2021/07/28 06:32:26;;;;;;;10.30;6.10;;;21.50;99.90;;;;;;4980675;28;20294;-63
2021/07/28 06:34:51;;;;;;;7.00;6.30;;;21.60;99.90;;;;;;4981442;28;20176;-62
2021/07/28 06:37:17;;;;;;;7.30;6.57;;;21.80;99.90;;;;;;4981209;28;20170;-64
2021/07/28 06:39:43;;;;;;;7.40;6.70;;;22.00;99.90;;;;;;4981026;28;20224;-62
2021/07/28 06:42:08;;;;;;;7.03;6.32;;;22.10;99.90;;;;;;4980864;28;20594;-64
2021/07/28 06:44:34;;;;;;;7.00;6.40;;;22.30;99.90;;;;;;4980711;28;20297;-64
2021/07/28 06:46:59;;;;;;;6.03;5.43;;;22.40;99.90;;;;;;4981447;28;20174;-63
2021/07/28 06:49:25;;;;;;;6.40;5.80;;;22.60;99.90;;;;;;4980601;28;20515;-63
2021/07/28 06:51:50;;;;;;;6.68;5.22;;;22.70;99.90;;;;;;4978573;28;20654;-63
2021/07/28 06:54:16;;;;;;;6.22;5.68;;;22.70;99.90;;;;;;4977768;28;20194;-62
2021/07/28 06:56:41;;;;;;;6.00;5.05;;;22.70;99.90;;;;;;4978033;28;20170;-64
2021/07/28 06:59:07;;;;;;;6.35;5.18;;;23.00;99.90;;;;;;4977630;28;20174;-63
2021/07/28 07:01:32;;;;;;;6.18;5.60;;;23.10;99.90;;;;;;4977232;28;20285;-64
2021/07/28 07:03:58;;;;;;;6.93;5.90;;;23.20;99.90;;;;;;4977548;28;20226;-64
2021/07/28 07:06:24;;;;;;;5.85;5.13;;;23.40;99.90;;;;;;4977238;28;20720;-64
2021/07/28 07:08:49;;;;;;;6.40;5.80;;;23.40;99.90;;;;;;4977285;28;20190;-64
2021/07/28 07:11:15;;;;;;;6.18;5.60;;;23.50;99.90;;;;;;4977136;28;20738;-64
2021/07/28 07:13:41;;;;;;;5.88;5.20;;;23.70;99.90;;;;;;4977458;28;20292;-63
2021/07/28 07:16:06;;;;;;;5.75;5.25;;;23.80;99.90;;;;;;4977908;28;20174;-63
2021/07/28 07:18:32;;;;;;;6.93;5.75;;;23.80;99.90;;;;;;4977178;28;20201;-64
2021/07/28 07:20:57;;;;;;;6.43;5.70;;;23.80;99.90;;;;;;4977480;28;20634;-64
2021/07/28 07:23:23;;;;;;;5.65;5.15;;;23.90;99.90;;;;;;4976765;28;20709;-63
2021/07/28 07:25:48;;;;;;;5.80;5.00;;;24.10;99.90;;;;;;4977323;28;20504;-65
2021/07/28 07:28:14;;;;;;;5.20;4.32;;;24.00;99.90;;;;;;4977058;28;20170;-64
2021/07/28 07:30:39;;;;;;;5.18;4.68;;;24.10;99.90;;;;;;4977486;28;20182;-64
2021/07/28 07:35:49;;;;;;;5.85;4.50;;;24.40;99.90;;;;;;4976932;28;20178;-61
2021/07/28 07:38:15;;;;;;;5.18;4.45;;;24.60;99.90;;;;;;4976669;28;20190;-63
2021/07/28 07:40:40;;;;;;;5.50;4.43;;;24.80;99.90;;;;;;4977157;28;20166;-63
2021/07/28 07:43:07;;;;;;;6.13;5.20;;;24.70;99.90;;;;;;4976643;28;20202;-63
2021/07/28 07:45:33;;;;;;;5.20;4.10;;;24.60;99.90;;;;;;4976890;28;20170;-61
2021/07/28 07:47:59;;;;;;;5.07;4.53;;;24.80;99.90;;;;;;4976910;28;20211;-60
2021/07/28 07:50:25;;;;;;;4.32;3.90;;;24.70;99.90;;;;;;4976661;28;20194;-63
2021/07/28 07:52:50;;;;;;;4.53;3.72;;;24.90;99.90;;;;;;4976168;28;20622;-62
2021/07/28 07:55:16;;;;;;;4.30;3.90;;;25.20;99.90;;;;;;4976949;28;20670;-62
2021/07/28 07:57:41;;;;;;;4.28;3.88;;;25.20;99.90;;;;;;4976903;28;20180;-61
2021/07/28 08:00:07;;;;;;;4.75;4.00;;;25.50;99.90;;;;;;4976716;28;20546;-61
2021/07/28 08:02:33;;;;;;;3.80;3.50;;;25.70;99.90;;;;;;4975713;28;20202;-63
2021/07/28 08:04:59;;;;;;;4.32;3.92;;;26.00;99.90;;;;;;4976926;28;20202;-61
2021/07/28 08:07:24;;;;;;;4.40;4.00;;;26.10;99.90;;;;;;4976385;28;20169;-62
2021/07/28 08:09:50;;;;;;;4.22;3.83;;;26.20;99.90;;;;;;4976577;28;20193;-62
2021/07/28 08:12:15;;;;;;;4.03;3.63;;;26.00;99.90;;;;;;4974596;28;20658;-62
2021/07/28 08:14:41;;;;;;;3.38;2.78;;;25.80;99.90;;;;;;4976870;28;20202;-60
2021/07/28 08:17:06;;;;;;;3.92;3.63;;;25.80;99.90;;;;;;4976375;28;20637;-62
2021/07/28 08:19:32;;;;;;;3.70;3.40;;;25.70;99.90;;;;;;4976090;28;20169;-59
2021/07/28 08:21:57;;;;;;;3.92;3.63;;;25.40;99.90;;;;;;4975705;28;20226;-62
2021/07/28 08:24:23;;;;;;;3.97;3.58;;;25.50;99.90;;;;;;4976100;28;20209;-63
2021/07/28 08:26:49;;;;;;;3.60;3.20;;;25.40;99.90;;;;;;4976195;28;20178;-62
2021/07/28 08:29:14;;;;;;;3.92;3.60;;;25.20;99.90;;;;;;4978755;28;20223;-63
2021/07/28 08:31:40;;;;;;;3.72;3.33;;;25.10;99.90;;;;;;4995669;28;20208;-62
2021/07/28 08:34:06;;;;;;;4.40;3.63;;;25.10;99.90;;;;;;4995145;28;20289;-64
2021/07/28 08:36:32;;;;;;;3.90;3.50;;;25.10;99.90;;;;;;4995232;28;20227;-64
2021/07/28 08:38:57;;;;;;;3.78;3.47;;;25.00;99.90;;;;;;4995340;28;20614;-62
2021/07/28 08:41:26;;;;;;;3.85;3.50;;;25.20;99.90;;;;;;4995154;28;20227;-63
2021/07/28 08:43:57;;;;;;;4.50;3.67;;;25.30;99.90;;;;;;4994938;28;20602;-63
2021/07/28 08:46:26;;;;;;;3.90;3.60;;;25.20;99.90;;;;;;4995112;28;20264;-64
2021/07/28 08:48:51;;;;;;;4.72;4.25;;;25.20;99.90;;;;;;4995199;28;20736;-63
2021/07/28 08:51:17;;;;;;;5.10;4.60;;;25.30;99.90;;;;;;4994456;28;20224;-62
2021/07/28 08:53:43;;;;;;;5.22;4.60;;;25.30;99.90;;;;;;4995329;28;20629;-64
2021/07/28 08:56:09;;;;;;;4.10;3.80;;;25.40;99.90;;;;;;4994949;28;20273;-62
2021/07/28 08:58:34;;;;;;;4.22;3.83;;;25.50;99.90;;;;;;4993643;28;20534;-63
2021/07/28 09:01:00;;;;;;;4.68;3.92;;;25.60;99.90;;;;;;4995210;28;20665;-64
2021/07/28 09:03:25;;;;;;;3.95;3.65;;;25.70;99.90;;;;;;4994907;28;20205;-63
2021/07/28 09:05:52;;;;;;;3.70;3.40;;;25.70;99.90;;;;;;4994802;28;20181;-61
2021/07/28 09:08:25;;;;;;;4.80;3.83;;;26.10;99.90;;;;;;4994822;28;20200;-63
2021/07/28 09:10:53;;;;;;;4.20;3.80;;;26.10;99.90;;;;;;4994630;28;20180;-62
2021/07/28 09:13:27;;;;;;;4.00;3.70;;;26.30;99.90;;;;;;4994099;28;20223;-62
2021/07/28 09:15:55;;;;;;;4.57;3.97;;;26.60;99.90;;;;;;4993842;28;20716;-64
2021/07/28 09:18:33;;;;;;;4.82;4.03;;;26.60;99.90;;;;;;4995064;28;20185;-64
2021/07/28 09:21:02;;;;;;;4.60;4.20;;;26.50;99.90;;;;;;4994744;28;20177;-64
2021/07/28 09:24:07;;;;;;;4.68;4.28;;;26.30;99.90;;;;;;4994208;28;20629;-63
2021/07/28 09:26:39;;;;;;;5.35;3.90;;;26.20;99.90;;;;;;4995068;28;20169;-64
2021/07/28 09:29:09;;;;;;;4.20;3.80;;;26.20;99.90;;;;;;4994468;28;20575;-64
2021/07/28 09:31:38;;;;;;;4.90;4.28;;;26.10;99.90;;;;;;4994267;28;20204;-64
2021/07/28 09:34:24;;;;;;;4.55;3.80;;;26.00;99.90;;;;;;4994477;28;20189;-64
2021/07/28 09:37:10;;;;;;;4.10;3.70;;;26.00;99.90;;;;;;4983886;28;20243;-63
2021/07/28 09:39:47;;;;;;;4.20;3.80;;;26.30;99.90;;;;;;4993912;28;20557;-64
2021/07/28 09:42:17;;;;;;;4.53;4.13;;;26.20;99.90;;;;;;4994211;28;20169;-63
2021/07/28 09:44:44;;;;;;;4.47;3.70;;;26.20;99.90;;;;;;4993988;28;20169;-64
2021/07/28 09:47:11;;;;;;;4.88;3.83;;;26.40;99.90;;;;;;4994488;28;20629;-63
2021/07/28 09:49:45;;;;;;;3.88;3.50;;;26.80;99.90;;;;;;4993955;28;20601;-64
2021/07/28 09:52:29;;;;;;;4.78;4.07;;;27.10;99.90;;;;;;4994161;28;20228;-64
2021/07/28 09:54:56;;;;;;;3.90;3.60;;;26.90;99.90;;;;;;4993021;28;20578;-63
2021/07/28 09:57:23;;;;;;;4.32;3.92;;;27.00;99.90;;;;;;4994638;28;20170;-64
2021/07/28 10:00:05;;;;;;;4.22;3.83;;;27.50;99.90;;;;;;4994115;28;20193;-64
2021/07/28 10:02:33;;;;;;;5.00;3.78;;;27.80;99.90;;;;;;4986468;28;20178;-64
2021/07/28 10:05:01;;;;;;;4.25;3.90;;;28.20;99.90;;;;;;4974577;28;20181;-64
2021/07/28 10:07:30;;;;;;;4.22;3.80;;;27.70;99.90;;;;;;4974765;28;20174;-64
2021/07/28 10:10:08;;;;;;;3.92;3.63;;;27.50;99.90;;;;;;4974738;28;20542;-64
2021/07/28 10:12:35;;;;;;;4.35;3.90;;;27.00;99.90;;;;;;4974471;28;20224;-63
2021/07/28 10:15:01;;;;;;;4.07;3.67;;;26.60;99.90;;;;;;4974600;28;20182;-63
2021/07/28 10:17:29;;;;;;;4.38;3.97;;;26.60;99.90;;;;;;4974533;28;20234;-64
2021/07/28 10:19:55;;;;;;;5.05;4.20;;;26.70;99.90;;;;;;4974812;28;20170;-64
2021/07/28 10:22:21;;;;;;;4.40;4.00;;;26.50;99.90;;;;;;4974406;28;20502;-64
2021/07/28 10:24:48;;;;;;;4.57;4.18;;;26.50;99.90;;;;;;4974973;28;20177;-62
2021/07/28 10:27:17;;;;;;;4.07;3.75;;;26.10;99.90;;;;;;4977218;28;20178;-63
2021/07/28 10:29:43;;;;;;;4.32;3.78;;;25.90;99.90;;;;;;4978440;28;20538;-63
2021/07/28 10:32:30;;;;;;;4.70;4.30;;;25.90;99.90;;;;;;4977811;28;20226;-63
2021/07/28 10:35:16;;;;;;;4.35;3.95;;;26.00;99.90;;;;;;4978430;28;20174;-63
2021/07/28 10:37:41;;;;;;;5.35;4.22;;;26.20;99.90;;;;;;4978102;28;20182;-64
2021/07/28 10:40:27;;;;;;;4.28;3.97;;;26.30;99.90;;;;;;4977960;28;20538;-64
2021/07/28 10:42:55;;;;;;;4.10;3.72;;;26.90;99.90;;;;;;4977375;28;20268;-63
2021/07/28 10:45:22;;;;;;;4.38;3.97;;;27.30;99.90;;;;;;4978156;28;20181;-64
2021/07/28 10:47:50;;;;;;;4.18;3.70;;;27.60;99.90;;;;;;4978113;28;20189;-64
2021/07/28 10:50:22;;;;;;;4.60;4.20;;;27.80;99.90;;;;;;4977956;28;20186;-64
2021/07/28 10:52:48;;;;;;;5.18;4.68;;;27.70;99.90;;;;;;4978168;28;20218;-64
2021/07/28 10:55:19;;;;;;;5.00;3.95;;;27.70;99.90;;;;;;4977689;28;20669;-64
2021/07/28 10:57:48;;;;;;;4.78;3.97;;;27.80;99.90;;;;;;4977647;28;20170;-64
2021/07/28 11:00:39;;;;;;;4.30;3.90;;;28.20;99.90;;;;;;4978090;28;20170;-64
2021/07/28 11:03:08;;;;;;;4.35;4.00;;;28.30;99.90;;;;;;4977260;28;20284;-64
2021/07/28 11:05:35;;;;;;;4.25;3.95;;;28.00;99.90;;;;;;4977426;28;20177;-64
2021/07/28 11:08:05;;;;;;;5.38;4.88;;;27.90;99.90;;;;;;4977337;28;20190;-64
2021/07/28 11:10:45;;;;;;;6.15;4.65;;;27.50;99.90;;;;;;4977293;28;20205;-64
2021/07/28 11:13:28;;;;;;;5.05;4.63;;;26.90;99.90;;;;;;4977197;28;20209;-64
2021/07/28 11:16:03;;;;;;;6.47;5.00;;;26.60;99.90;;;;;;4977354;28;20185;-64
2021/07/28 11:18:41;;;;;;;5.15;4.75;;;26.20;99.90;;;;;;4977647;28;20630;-63
2021/07/28 11:21:15;;;;;;;5.80;5.20;;;25.70;99.90;;;;;;4976908;28;20634;-64
2021/07/28 11:23:46;;;;;;;5.82;5.25;;;25.40;99.90;;;;;;4977179;28;20194;-64
2021/07/28 11:26:20;;;;;;;5.32;4.82;;;25.20;99.90;;;;;;4977520;28;20221;-63
2021/07/28 11:28:46;;;;;;;5.55;4.45;;;25.20;99.90;;;;;;4976984;28;20616;-64
2021/07/28 11:31:13;;;;;;;6.00;4.95;;;25.10;99.90;;;;;;4977085;28;20701;-62
2021/07/28 11:33:39;;;;;;;5.50;5.00;;;25.10;99.90;;;;;;4976856;28;20210;-64
2021/07/28 11:36:06;;;;;;;5.85;4.93;;;25.10;99.90;;;;;;4977586;28;20179;-63
2021/07/28 11:38:32;;;;;;;5.20;4.70;;;25.00;99.90;;;;;;4976537;28;20652;-60
2021/07/28 11:41:00;;;;;;;5.18;4.68;;;24.80;99.90;;;;;;4977007;28;20178;-62
2021/07/28 11:43:34;;;;;;;5.65;5.13;;;24.80;99.90;;;;;;4976512;28;20214;-62
2021/07/28 11:46:04;;;;;;;5.55;4.85;;;24.60;99.90;;;;;;4977058;28;20827;-64
2021/07/28 11:48:46;;;;;;;5.30;4.65;;;24.40;99.90;;;;;;4976830;28;20258;-63
2021/07/28 11:51:27;;;;;;;6.00;4.93;;;24.20;99.90;;;;;;4976432;28;20238;-64
2021/07/28 11:54:10;;;;;;;6.72;5.10;;;23.80;99.90;;;;;;4976299;28;20206;-63
2021/07/28 11:56:37;;;;;;;5.95;5.05;;;23.60;99.90;;;;;;4976913;28;20262;-63
2021/07/28 11:59:03;;;;;;;9.60;5.05;;;23.50;99.90;;;;;;4977083;28;20177;-64
2021/07/28 12:01:33;;;;;;;8.13;5.38;;;23.40;99.90;;;;;;4976663;28;20174;-63
2021/07/28 12:04:08;;;;;;;5.70;5.10;;;23.40;99.90;;;;;;4976509;28;20194;-64
2021/07/28 12:06:41;;;;;;;5.70;5.15;;;23.20;99.90;;;;;;4976673;28;20169;-63
2021/07/28 12:09:16;;;;;;;5.50;5.00;;;23.00;99.90;;;;;;4976158;28;20205;-62
2021/07/28 12:11:58;;;;;;;6.97;5.40;;;22.70;99.90;;;;;;4976114;28;20613;-63
2021/07/28 12:14:27;;;;;;;6.85;5.45;;;22.60;99.90;;;;;;4977093;28;20209;-62
2021/07/28 12:17:00;;;;;;;7.40;6.28;;;22.50;99.90;;;;;;4976279;28;20221;-66
2021/07/28 12:19:29;;;;;;;11.18;6.63;;;22.40;99.90;;;;;;4976179;28;20190;-63
2021/07/28 12:22:00;;;;;;;7.18;6.50;;;22.30;99.90;;;;;;4975825;28;20217;-63
2021/07/28 12:24:47;;;;;;;7.50;6.45;;;22.20;99.90;;;;;;4975493;28;20535;-63
2021/07/28 12:27:24;;;;;;;7.70;7.00;;;22.10;99.90;;;;;;4975770;28;20189;-63
2021/07/28 12:30:00;;;;;;;9.43;6.80;;;22.00;99.90;;;;;;4975798;28;20205;-63
2021/07/28 12:32:39;;;;;;;8.68;7.20;;;22.00;99.90;;;;;;4974504;28;20217;-62
2021/07/28 12:35:14;;;;;;;8.27;7.00;;;22.00;99.90;;;;;;4976209;28;20197;-62
2021/07/28 12:37:41;;;;;;;10.65;7.60;;;22.00;99.90;;;;;;4975787;28;20264;-63
2021/07/28 12:40:07;;;;;;;9.23;8.35;;;22.00;99.90;;;;;;4976167;28;20510;-62
2021/07/28 12:42:33;;;;;;;9.77;8.82;;;22.00;99.90;;;;;;4975633;28;20207;-61
2021/07/28 12:44:59;;;;;;;9.57;8.00;;;21.90;99.90;;;;;;4976113;28;20178;-59
2021/07/28 12:47:25;;;;;;;9.30;8.50;;;21.90;99.90;;;;;;4975646;28;20185;-62
2021/07/28 12:49:51;;;;;;;10.10;7.82;;;22.10;99.90;;;;;;4976239;28;20178;-61
2021/07/28 12:52:17;;;;;;;9.43;8.45;;;22.20;99.90;;;;;;4973819;28;20245;-62
2021/07/28 12:54:42;;;;;;;8.93;7.68;;;22.50;99.90;;;;;;4975595;28;20174;-63